Terminal Aerodrome Forecast
Issued by NWS

Home | Current Version | Previous Version | Graphics & Text | Print | Product List | Glossary Off
Versions: 1 2 3 4 5 6 7 8 9 10 11 12 13 14 15 16 17

000
FTUS43 KMPX 232300
TAFRNH
TAF
KRNH 232335Z 2400/2424 16007KT P6SM BKN250
     FM240600 15006KT P6SM BKN100 OVC250
     FM241400 17010KT P6SM OVC050=

USA.gov is the U.S. government's official web portal to all federal, state and local government web resources and services.